Observation data for Tulia on 02/16/2018      Previous  Date  Next       Current Mesonet Observations  Soil Data  Daily Summary Page  Observations in Plain Language
KTIS 160600Z 30012KT 14/03 A3008 RMK A01 T01360032  RH  050%=      5-min Rain = 0
KTIS 160605Z 30011KT 14/03 A3008 RMK A01 T01370030  RH  049%=      5-min Rain = 0
KTIS 160610Z 30013G19KT 14/03 A3008 RMK A01 T01380027  RH  048%=      5-min Rain = 0
KTIS 160615Z 30014KT 14/03 A3008 RMK A01 T01390025  RH  047%=      5-min Rain = 0
KTIS 160620Z 30015G20KT 14/02 A3008 RMK A01 T01390023  RH  046%=      5-min Rain = 0
KTIS 160625Z 30017KT 14/02 A3008 RMK A01 T01400021  RH  045%=      5-min Rain = 0
KTIS 160630Z 30017G22KT 14/02 A3008 RMK A01 T01400019  RH  044%=      5-min Rain = 0
KTIS 160635Z 31015G20KT 14/02 A3008 RMK A01 T01390018  RH  044%=      5-min Rain = 0
KTIS 160640Z 31016G21KT 14/02 A3009 RMK A01 T01380017  RH  044%=      5-min Rain = 0
KTIS 160645Z 31017KT 14/02 A3009 RMK A01 T01370016  RH  044%=      5-min Rain = 0
KTIS 160650Z 34022G31KT 13/01 A301 RMK A01 T01300011  RH  044%=      5-min Rain = 0
KTIS 160655Z 36019G25KT 11/00 A3012 RMK A01 T01110004  RH  048%=      5-min Rain = 0
KTIS 160700Z 36018G23KT 10/00 A3012 RMK A01 T01040000  RH  049%=      5-min Rain = 0
KTIS 160705Z 00020G26KT 10/M01 A3013 RMK A01 T00991005  RH  049%=      5-min Rain = 0
KTIS 160710Z 01020G27KT 10/M01 A3013 RMK A01 T00951011  RH  048%=      5-min Rain = 0
KTIS 160715Z 00020G27KT 09/M01 A3014 RMK A01 T00921012  RH  049%=      5-min Rain = 0
KTIS 160720Z 00022G28KT 09/M01 A3014 RMK A01 T00901013  RH  049%=      5-min Rain = 0
KTIS 160725Z 01016G23KT 09/M01 A3014 RMK A01 T00881013  RH  049%=      5-min Rain = 0
KTIS 160730Z 01016G21KT 09/M01 A3015 RMK A01 T00871014  RH  050%=      5-min Rain = 0
KTIS 160735Z 01013G18KT 09/M01 A3015 RMK A01 T00861014  RH  050%=      5-min Rain = 0
KTIS 160740Z 01015G22KT 08/M01 A3015 RMK A01 T00841014  RH  051%=      5-min Rain = 0
KTIS 160745Z 01018G26KT 08/M01 A3016 RMK A01 T00831013  RH  051%=      5-min Rain = 0
KTIS 160750Z 01019G27KT 08/M01 A3016 RMK A01 T00821013  RH  052%=      5-min Rain = 0
KTIS 160755Z 01017G24KT 08/M01 A3016 RMK A01 T00811014  RH  052%=      5-min Rain = 0
KTIS 160800Z 01016G23KT 08/M01 A3017 RMK A01 T00801014  RH  052%=      5-min Rain = 0
KTIS 160805Z 01019G27KT 08/M01 A3017 RMK A01 T00801014  RH  052%=      5-min Rain = 0
KTIS 160810Z 01019G25KT 08/M01 A3017 RMK A01 T00791014  RH  052%=      5-min Rain = 0
KTIS 160815Z 00020G27KT 08/M02 A3017 RMK A01 T00781016  RH  052%=      5-min Rain = 0
KTIS 160820Z 01020G29KT 08/M02 A3018 RMK A01 T00761018  RH  052%=      5-min Rain = 0
KTIS 160825Z 01020G30KT 07/M02 A3018 RMK A01 T00741020  RH  052%=      5-min Rain = 0
KTIS 160830Z 01019G27KT 07/M02 A3019 RMK A01 T00741020  RH  052%=      5-min Rain = 0
KTIS 160835Z 01019G28KT 07/M02 A3019 RMK A01 T00731019  RH  053%=      5-min Rain = 0
KTIS 160840Z 01020G29KT 07/M02 A302 RMK A01 T00721020  RH  052%=      5-min Rain = 0
KTIS 160845Z 01021G29KT 07/M02 A302 RMK A01 T00711022  RH  052%=      5-min Rain = 0
KTIS 160850Z 01019G29KT 07/M02 A302 RMK A01 T00701023  RH  052%=      5-min Rain = 0
KTIS 160855Z 01018G27KT 07/M03 A302 RMK A01 T00691026  RH  051%=      5-min Rain = 0
KTIS 160900Z 01017G25KT 07/M03 A3021 RMK A01 T00681029  RH  051%=      5-min Rain = 0
KTIS 160905Z 02021G30KT 07/M03 A3021 RMK A01 T00671032  RH  050%=      5-min Rain = 0
KTIS 160910Z 02021G30KT 07/M03 A3021 RMK A01 T00671033  RH  049%=      5-min Rain = 0
KTIS 160915Z 02017G22KT 07/M03 A3021 RMK A01 T00661030  RH  051%=      5-min Rain = 0
KTIS 160920Z 02016G22KT 07/M03 A3022 RMK A01 T00651026  RH  053%=      5-min Rain = 0
KTIS 160925Z 02017G24KT 06/M03 A3022 RMK A01 T00641026  RH  053%=      5-min Rain = 0
KTIS 160930Z 02021G30KT 06/M03 A3022 RMK A01 T00621028  RH  053%=      5-min Rain = 0
KTIS 160935Z 02019G25KT 06/M03 A3022 RMK A01 T00611032  RH  052%=      5-min Rain = 0
KTIS 160940Z 03021G28KT 06/M04 A3022 RMK A01 T00601036  RH  051%=      5-min Rain = 0
KTIS 160945Z 03018G23KT 06/M04 A3023 RMK A01 T00591036  RH  051%=      5-min Rain = 0
KTIS 160950Z 02015G22KT 06/M04 A3024 RMK A01 T00581036  RH  052%=      5-min Rain = 0
KTIS 160955Z 02013G20KT 06/M03 A3024 RMK A01 T00581033  RH  053%=      5-min Rain = 0
KTIS 161000Z 02018G26KT 06/M03 A3024 RMK A01 T00571031  RH  054%=      5-min Rain = 0
KTIS 161005Z 02016G21KT 06/M03 A3024 RMK A01 T00561032  RH  054%=      5-min Rain = 0
KTIS 161010Z 02012G18KT 06/M03 A3025 RMK A01 T00551031  RH  055%=      5-min Rain = 0
KTIS 161015Z 02013G21KT 05/M03 A3025 RMK A01 T00541030  RH  055%=      5-min Rain = 0
KTIS 161020Z 03019G25KT 05/M03 A3025 RMK A01 T00531033  RH  054%=      5-min Rain = 0
KTIS 161025Z 02018G23KT 05/M03 A3026 RMK A01 T00521032  RH  055%=      5-min Rain = 0
KTIS 161030Z 03015G21KT 05/M03 A3026 RMK A01 T00511032  RH  056%=      5-min Rain = 0
KTIS 161035Z 03013G19KT 05/M03 A3026 RMK A01 T00501032  RH  056%=      5-min Rain = 0
KTIS 161040Z 03017G22KT 05/M03 A3026 RMK A01 T00491033  RH  056%=      5-min Rain = 0
KTIS 161045Z 03016G23KT 05/M03 A3026 RMK A01 T00481034  RH  056%=      5-min Rain = 0
KTIS 161050Z 03017G25KT 05/M04 A3026 RMK A01 T00471035  RH  056%=      5-min Rain = 0
KTIS 161055Z 02017G23KT 05/M03 A3026 RMK A01 T00461034  RH  056%=      5-min Rain = 0
KTIS 161100Z 02017G22KT 05/M03 A3026 RMK A01 T00451034  RH  057%=      5-min Rain = 0
KTIS 161105Z 02020G27KT 04/M03 A3027 RMK A01 T00431034  RH  058%=      5-min Rain = 0
KTIS 161110Z 02022G29KT 04/M03 A3027 RMK A01 T00391034  RH  060%=      5-min Rain = 0
KTIS 161115Z 03018G24KT 04/M03 A3027 RMK A01 T00371032  RH  061%=      5-min Rain = 0
KTIS 161120Z 03015KT 04/M03 A3027 RMK A01 T00351031  RH  063%=      5-min Rain = 0
KTIS 161125Z 02015G21KT 03/M03 A3028 RMK A01 T00341029  RH  064%=      5-min Rain = 0
KTIS 161130Z 02016G22KT 03/M03 A3028 RMK A01 T00321029  RH  065%=      5-min Rain = 0
KTIS 161135Z 02015G20KT 03/M03 A3028 RMK A01 T00311028  RH  066%=      5-min Rain = 0
KTIS 161140Z 02014G20KT 03/M03 A3028 RMK A01 T00301028  RH  066%=      5-min Rain = 0
KTIS 161145Z 02014G21KT 03/M03 A3029 RMK A01 T00291028  RH  067%=      5-min Rain = 0
KTIS 161150Z 02015G22KT 03/M03 A3029 RMK A01 T00281028  RH  067%=      5-min Rain = 0
KTIS 161155Z 01015G21KT 03/M03 A3029 RMK A01 T00261028  RH  068%=      5-min Rain = 0
KTIS 161200Z 02015KT 03/M03 A3029 RMK A01 T00251028  RH  069%=      5-min Rain = 0
KTIS 161205Z 03013G18KT 02/M03 A3029 RMK A01 T00241027  RH  069%=      5-min Rain = 0
KTIS 161210Z 03015G20KT 02/M03 A303 RMK A01 T00231027  RH  070%=      5-min Rain = 0
KTIS 161215Z 03015G21KT 02/M03 A303 RMK A01 T00211027  RH  071%=      5-min Rain = 0
KTIS 161220Z 03016KT 02/M03 A303 RMK A01 T00201027  RH  072%=      5-min Rain = 0
KTIS 161225Z 03015KT 02/M03 A3031 RMK A01 T00191027  RH  072%=      5-min Rain = 0
KTIS 161230Z 02013G18KT 02/M03 A3031 RMK A01 T00191026  RH  073%=      5-min Rain = 0
KTIS 161235Z 01013G18KT 02/M02 A3031 RMK A01 T00171024  RH  075%=      5-min Rain = 0
KTIS 161240Z 01013G18KT 02/M02 A3032 RMK A01 T00161024  RH  076%=      5-min Rain = 0
KTIS 161245Z 01013G19KT 02/M02 A3032 RMK A01 T00151024  RH  076%=      5-min Rain = 0
KTIS 161250Z 01014KT 01/M02 A3032 RMK A01 T00131024  RH  077%=      5-min Rain = 0
KTIS 161255Z 01012G17KT 01/M02 A3032 RMK A01 T00121024  RH  078%=      5-min Rain = 0
KTIS 161300Z 01012G17KT 01/M02 A3033 RMK A01 T00121024  RH  078%=      5-min Rain = 0
KTIS 161305Z 01013G19KT 01/M02 A3033 RMK A01 T00111024  RH  078%=      5-min Rain = 0
KTIS 161310Z 01012G18KT 01/M02 A3034 RMK A01 T00101024  RH  079%=      5-min Rain = 0
KTIS 161315Z 01014KT 01/M02 A3034 RMK A01 T00101024  RH  079%=      5-min Rain = 0
KTIS 161320Z 01013KT 01/M02 A3034 RMK A01 T00101024  RH  079%=      5-min Rain = 0
KTIS 161325Z 01013KT 01/M02 A3034 RMK A01 T00091023  RH  080%=      5-min Rain = 0
KTIS 161330Z 01012G18KT 01/M02 A3034 RMK A01 T00091023  RH  080%=      5-min Rain = 0
KTIS 161335Z 01011KT 01/M02 A3035 RMK A01 T00101023  RH  080%=      5-min Rain = 0
KTIS 161340Z 02012G18KT 01/M02 A3035 RMK A01 T00101023  RH  080%=      5-min Rain = 0
KTIS 161345Z 02012KT 01/M02 A3034 RMK A01 T00101023  RH  080%=      5-min Rain = 0
KTIS 161350Z 02014G19KT 01/M02 A3035 RMK A01 T00101023  RH  080%=      5-min Rain = 0
KTIS 161355Z 02013G19KT 01/M02 A3035 RMK A01 T00101023  RH  080%=      5-min Rain = 0
KTIS 161400Z 02014KT 01/M02 A3034 RMK A01 T00091023  RH  080%=      5-min Rain = 0
KTIS 161405Z 02013KT 01/M02 A3034 RMK A01 T00101022  RH  080%=      5-min Rain = 0
KTIS 161410Z 03014G19KT 01/M02 A3034 RMK A01 T00101022  RH  080%=      5-min Rain = 0
KTIS 161415Z 02014G19KT 01/M02 A3035 RMK A01 T00101022  RH  080%=      5-min Rain = 0
KTIS 161420Z 02014KT 01/M02 A3035 RMK A01 T00101022  RH  080%=      5-min Rain = 0
KTIS 161425Z 03013KT 01/M02 A3035 RMK A01 T00111021  RH  080%=      5-min Rain = 0
KTIS 161430Z 03013KT 01/M02 A3035 RMK A01 T00101021  RH  080%=      5-min Rain = 0
KTIS 161435Z 02014KT 01/M02 A3035 RMK A01 T00111020  RH  080%=      5-min Rain = 0
KTIS 161440Z 02013KT 01/M02 A3035 RMK A01 T00121020  RH  080%=      5-min Rain = 0
KTIS 161445Z 02015KT 01/M02 A3036 RMK A01 T00131019  RH  080%=      5-min Rain = 0
KTIS 161450Z 02014KT 01/M02 A3036 RMK A01 T00131019  RH  080%=      5-min Rain = 0
KTIS 161455Z 02013KT 01/M02 A3036 RMK A01 T00131019  RH  080%=      5-min Rain = 0
KTIS 161500Z 00014G19KT 01/M02 A3036 RMK A01 T00131020  RH  080%=      5-min Rain = 0
KTIS 161505Z 01012G18KT 01/M02 A3036 RMK A01 T00131020  RH  080%=      5-min Rain = 0
KTIS 161510Z 01014G19KT 01/M02 A3036 RMK A01 T00121020  RH  080%=      5-min Rain = 0
KTIS 161515Z 01013G18KT 01/M02 A3037 RMK A01 T00111020  RH  081%=      5-min Rain = 0
KTIS 161520Z 02014KT 01/M02 A3037 RMK A01 T00111020  RH  080%=      5-min Rain = 0
KTIS 161525Z 01013G18KT 01/M02 A3037 RMK A01 T00101021  RH  081%=      5-min Rain = 0
KTIS 161530Z 02014KT 01/M02 A3038 RMK A01 T00091021  RH  081%=      5-min Rain = 0
KTIS 161535Z 03013KT 01/M02 A3038 RMK A01 T00091022  RH  081%=      5-min Rain = 0
KTIS 161540Z 02013KT 01/M02 A3038 RMK A01 T00101022  RH  080%=      5-min Rain = 0
KTIS 161545Z 03013KT 01/M02 A3038 RMK A01 T00091022  RH  081%=      5-min Rain = 0
KTIS 161550Z 04013KT 01/M02 A3038 RMK A01 T00111022  RH  079%=      5-min Rain = 0
KTIS 161555Z 03013KT 01/M02 A3038 RMK A01 T00141021  RH  078%=      5-min Rain = 0
KTIS 161600Z 04013KT 02/M02 A3038 RMK A01 T00171021  RH  077%=      5-min Rain = 0
KTIS 161605Z 02013KT 01/M02 A3038 RMK A01 T00131024  RH  077%=      5-min Rain = 0
KTIS 161610Z 03012G17KT 01/M03 A3038 RMK A01 T00121026  RH  077%=      5-min Rain = 0
KTIS 161615Z 03012G17KT 01/M03 A3038 RMK A01 T00101027  RH  077%=      5-min Rain = 0
KTIS 161620Z 02012G17KT 01/M03 A3038 RMK A01 T00111027  RH  077%=      5-min Rain = 0
KTIS 161625Z 02011KT 01/M03 A3038 RMK A01 T00141026  RH  076%=      5-min Rain = 0
KTIS 161630Z 04012G17KT 02/M03 A3038 RMK A01 T00171027  RH  074%=      5-min Rain = 0
KTIS 161635Z 03011G17KT 02/M03 A3038 RMK A01 T00181026  RH  073%=      5-min Rain = 0
KTIS 161640Z 04013KT 02/M03 A3037 RMK A01 T00211026  RH  072%=      5-min Rain = 0
KTIS 161645Z 02011KT 02/M03 A3038 RMK A01 T00211026  RH  072%=      5-min Rain = 0
KTIS 161650Z 02010KT 02/M03 A3038 RMK A01 T00221026  RH  071%=      5-min Rain = 0
KTIS 161655Z 03010KT 03/M03 A3039 RMK A01 T00251026  RH  070%=      5-min Rain = 0
KTIS 161700Z 02008G13KT 02/M03 A3039 RMK A01 T00241027  RH  070%=      5-min Rain = 0
KTIS 161705Z 03010KT 03/M03 A3039 RMK A01 T00251026  RH  070%=      5-min Rain = 0
KTIS 161710Z 05010KT 03/M03 A3038 RMK A01 T00261027  RH  069%=      5-min Rain = 0
KTIS 161715Z 02009KT 03/M03 A3038 RMK A01 T00271025  RH  069%=      5-min Rain = 0
KTIS 161720Z 02009G14KT 03/M03 A3038 RMK A01 T00271025  RH  069%=      5-min Rain = 0
KTIS 161725Z 03010KT 03/M03 A3038 RMK A01 T00291026  RH  068%=      5-min Rain = 0
KTIS 161730Z 04009KT 03/M03 A3038 RMK A01 T00281026  RH  068%=      5-min Rain = 0
KTIS 161735Z 02009KT 03/M03 A3038 RMK A01 T00281027  RH  068%=      5-min Rain = 0
KTIS 161740Z 01008KT 03/M03 A3038 RMK A01 T00301026  RH  067%=      5-min Rain = 0
KTIS 161745Z 03008G13KT 03/M03 A3038 RMK A01 T00301027  RH  067%=      5-min Rain = 0
KTIS 161750Z 02009KT 03/M03 A3038 RMK A01 T00321028  RH  066%=      5-min Rain = 0
KTIS 161755Z 03009G14KT 03/M03 A3037 RMK A01 T00301028  RH  066%=      5-min Rain = 0
KTIS 161800Z 03008G13KT 03/M03 A3037 RMK A01 T00311029  RH  065%=      5-min Rain = 0
KTIS 161805Z 04008G13KT 03/M03 A3037 RMK A01 T00321029  RH  065%=      5-min Rain = 0
KTIS 161810Z 02008KT 03/M03 A3037 RMK A01 T00341029  RH  064%=      5-min Rain = 0
KTIS 161815Z 03008G13KT 03/M03 A3036 RMK A01 T00331031  RH  064%=      5-min Rain = 0
KTIS 161820Z 03008KT 03/M03 A3036 RMK A01 T00331032  RH  063%=      5-min Rain = 0
KTIS 161825Z 03007KT 03/M03 A3036 RMK A01 T00331032  RH  063%=      5-min Rain = 0
KTIS 161830Z 05009KT 04/M03 A3036 RMK A01 T00351033  RH  062%=      5-min Rain = 0
KTIS 161835Z 03007G12KT 04/M03 A3035 RMK A01 T00351033  RH  062%=      5-min Rain = 0
KTIS 161840Z 03007KT 04/M03 A3035 RMK A01 T00361033  RH  061%=      5-min Rain = 0
KTIS 161845Z 01006KT 04/M03 A3034 RMK A01 T00351033  RH  062%=      5-min Rain = 0
KTIS 161850Z 04006KT 04/M03 A3034 RMK A01 T00401031  RH  060%=      5-min Rain = 0
KTIS 161855Z 06007KT 04/M03 A3034 RMK A01 T00401034  RH  059%=      5-min Rain = 0
KTIS 161900Z 02006KT 04/M03 A3034 RMK A01 T00391034  RH  060%=      5-min Rain = 0
KTIS 161905Z 04007KT 04/M03 A3033 RMK A01 T00381034  RH  060%=      5-min Rain = 0
KTIS 161910Z 03004KT 04/M03 A3033 RMK A01 T00391034  RH  060%=      5-min Rain = 0
KTIS 161915Z 05006G12KT 04/M03 A3033 RMK A01 T00411033  RH  059%=      5-min Rain = 0
KTIS 161920Z 03003KT 05/M03 A3033 RMK A01 T00451034  RH  057%=      5-min Rain = 0
KTIS 161925Z 05004G9KT 05/M03 A3032 RMK A01 T00461034  RH  057%=      5-min Rain = 0
KTIS 161930Z 08004KT 04/M04 A3031 RMK A01 T00441036  RH  056%=      5-min Rain = 0
KTIS 161935Z 03003KT 05/M04 A3031 RMK A01 T00461035  RH  056%=      5-min Rain = 0
KTIS 161940Z 01003KT 05/M04 A303 RMK A01 T00451036  RH  056%=      5-min Rain = 0
KTIS 161945Z 10005KT 05/M04 A303 RMK A01 T00451036  RH  056%=      5-min Rain = 0
KTIS 161950Z 12003KT 04/M04 A303 RMK A01 T00441037  RH  056%=      5-min Rain = 0
KTIS 161955Z 11003KT 04/M04 A3029 RMK A01 T00421037  RH  057%=      5-min Rain = 0
KTIS 162000Z 06003KT 04/M04 A3028 RMK A01 T00421037  RH  057%=      5-min Rain = 0
KTIS 162005Z 09004KT 04/M04 A3028 RMK A01 T00441037  RH  057%=      5-min Rain = 0
KTIS 162010Z 10002KT 04/M04 A3029 RMK A01 T00441037  RH  057%=      5-min Rain = 0
KTIS 162015Z 11004KT 04/M03 A3029 RMK A01 T00421033  RH  059%=      5-min Rain = 0
KTIS 162020Z 13002KT 04/M03 A3028 RMK A01 T00421032  RH  059%=      5-min Rain = 0
KTIS 162025Z 13002KT 04/M03 A3028 RMK A01 T00421030  RH  060%=      5-min Rain = 0
KTIS 162030Z 12002KT 04/M03 A3028 RMK A01 T00431027  RH  061%=      5-min Rain = 0
KTIS 162035Z 10002KT 04/M03 A3027 RMK A01 T00431026  RH  061%=      5-min Rain = 0
KTIS 162040Z 11003KT 05/M02 A3027 RMK A01 T00451020  RH  063%=      5-min Rain = 0
KTIS 162045Z 14001KT 04/M03 A3027 RMK A01 T00431025  RH  062%=      5-min Rain = 0
KTIS 162050Z 14001KT 04/M02 A3027 RMK A01 T00431024  RH  063%=      5-min Rain = 0
KTIS 162055Z 14003KT 05/M02 A3026 RMK A01 T00451019  RH  064%=      5-min Rain = 0
KTIS 162100Z 11002KT 04/M02 A3026 RMK A01 T00441023  RH  062%=      5-min Rain = 0
KTIS 162105Z 07000KT 04/M02 A3025 RMK A01 T00441022  RH  063%=      5-min Rain = 0
KTIS 162110Z 10004KT 05/M02 A3024 RMK A01 T00461017  RH  064%=      5-min Rain = 0
KTIS 162115Z 12003KT 05/M02 A3024 RMK A01 T00461018  RH  064%=      5-min Rain = 0
KTIS 162120Z 12004KT 05/M02 A3024 RMK A01 T00461017  RH  064%=      5-min Rain = 0
KTIS 162125Z 14003KT 05/M02 A3024 RMK A01 T00471020  RH  062%=      5-min Rain = 0
KTIS 162130Z 13001KT 05/M02 A3023 RMK A01 T00471019  RH  063%=      5-min Rain = 0
KTIS 162135Z 14002G7KT 05/M02 A3023 RMK A01 T00501018  RH  062%=      5-min Rain = 0
KTIS 162140Z 14005KT 05/M02 A3022 RMK A01 T00521019  RH  061%=      5-min Rain = 0
KTIS 162145Z 11004KT 05/M02 A3022 RMK A01 T00521017  RH  062%=      5-min Rain = 0
KTIS 162150Z 12004KT 05/M02 A3022 RMK A01 T00511022  RH  060%=      5-min Rain = 0
KTIS 162155Z 12004KT 05/M02 A3021 RMK A01 T00501021  RH  061%=      5-min Rain = 0
KTIS 162200Z 12004KT 05/M02 A3021 RMK A01 T00501021  RH  061%=      5-min Rain = 0
KTIS 162205Z 15003KT 05/M02 A3021 RMK A01 T00491020  RH  061%=      5-min Rain = 0
KTIS 162210Z 15004KT 05/M02 A3021 RMK A01 T00501020  RH  061%=      5-min Rain = 0
KTIS 162215Z 14003KT 05/M02 A3021 RMK A01 T00491021  RH  061%=      5-min Rain = 0
KTIS 162220Z 11004KT 05/M02 A3021 RMK A01 T00501020  RH  061%=      5-min Rain = 0
KTIS 162225Z 12006KT 05/M02 A302 RMK A01 T00501021  RH  061%=      5-min Rain = 0
KTIS 162230Z 12006KT 05/M02 A302 RMK A01 T00511021  RH  060%=      5-min Rain = 0
KTIS 162235Z 11004KT 05/M02 A302 RMK A01 T00511023  RH  059%=      5-min Rain = 0
KTIS 162240Z 12005KT 05/M02 A302 RMK A01 T00511023  RH  059%=      5-min Rain = 0
KTIS 162245Z 12006KT 05/M02 A302 RMK A01 T00511024  RH  059%=      5-min Rain = 0
KTIS 162250Z 11006KT 05/M03 A302 RMK A01 T00491025  RH  059%=      5-min Rain = 0
KTIS 162255Z 12005KT 05/M03 A3019 RMK A01 T00501025  RH  059%=      5-min Rain = 0
KTIS 162300Z 13006KT 05/M02 A3019 RMK A01 T00501023  RH  060%=      5-min Rain = 0
KTIS 162305Z 13006KT 05/M02 A3019 RMK A01 T00491021  RH  061%=      5-min Rain = 0
KTIS 162310Z 14007KT 05/M02 A3019 RMK A01 T00481024  RH  060%=      5-min Rain = 0
KTIS 162315Z 13007KT 05/M02 A3019 RMK A01 T00481023  RH  061%=      5-min Rain = 0
KTIS 162320Z 13007KT 05/M02 A3019 RMK A01 T00481023  RH  061%=      5-min Rain = 0
KTIS 162325Z 13006KT 05/M02 A3019 RMK A01 T00471022  RH  062%=      5-min Rain = 0
KTIS 162330Z 13007KT 05/M02 A3019 RMK A01 T00461018  RH  064%=      5-min Rain = 0
KTIS 162335Z 13007KT 04/M01 A3018 RMK A01 T00441013  RH  067%=      5-min Rain = 0
KTIS 162340Z 13006KT 04/M02 A3018 RMK A01 T00441015  RH  066%=      5-min Rain = 0
KTIS 162345Z 14007KT 04/M02 A3018 RMK A01 T00431016  RH  066%=      5-min Rain = 0
KTIS 162350Z 14007KT 04/M01 A3018 RMK A01 T00431013  RH  068%=      5-min Rain = 0
KTIS 162355Z 14007KT 04/M01 A3018 RMK A01 T00421012  RH  069%=      5-min Rain = 0
KTIS 170000Z 14006KT 04/M01 A3018 RMK A01 T00411011  RH  070%=      5-min Rain = 0
KTIS 170005Z 14007KT 04/M01 A3017 RMK A01 T00411011  RH  070%=      5-min Rain = 0
KTIS 170010Z 14007KT 04/M01 A3017 RMK A01 T00401008  RH  071%=      5-min Rain = 0
KTIS 170015Z 13008KT 04/M01 A3017 RMK A01 T00401009  RH  071%=      5-min Rain = 0
KTIS 170020Z 13006KT 04/M01 A3016 RMK A01 T00381005  RH  074%=      5-min Rain = 0
KTIS 170025Z 14006KT 04/M00 A3016 RMK A01 T00371003  RH  076%=      5-min Rain = 0
KTIS 170030Z 13007KT 04/M00 A3016 RMK A01 T00371001  RH  077%=      5-min Rain = 0
KTIS 170035Z 13006KT 04/00 A3016 RMK A01 T00360002  RH  079%=      5-min Rain = 0
KTIS 170040Z 14006KT 04/00 A3016 RMK A01 T00350002  RH  080%=      5-min Rain = 0
KTIS 170045Z 14006KT 03/00 A3016 RMK A01 T00340001  RH  080%=      5-min Rain = 0
KTIS 170050Z 15005KT 03/00 A3017 RMK A01 T00330003  RH  082%=      5-min Rain = 0
KTIS 170055Z 15006KT 03/00 A3017 RMK A01 T00330004  RH  083%=      5-min Rain = 0
KTIS 170100Z 15006KT 03/01 A3017 RMK A01 T00320005  RH  083%=      5-min Rain = 0
KTIS 170105Z 15006KT 03/01 A3017 RMK A01 T00320006  RH  084%=      5-min Rain = 0.01
KTIS 170110Z 15006KT 03/01 A3017 RMK A01 T00310008  RH  086%=      5-min Rain = 0
KTIS 170115Z 15007KT 03/01 A3016 RMK A01 T00310009  RH  086%=      5-min Rain = 0
KTIS 170120Z 15007KT 03/01 A3016 RMK A01 T00300010  RH  087%=      5-min Rain = 0
KTIS 170125Z 15008KT 03/01 A3016 RMK A01 T00290009  RH  087%=      5-min Rain = 0
KTIS 170130Z 15009KT 03/01 A3016 RMK A01 T00290009  RH  088%=      5-min Rain = 0
KTIS 170135Z 15008KT 03/01 A3016 RMK A01 T00280011  RH  089%=      5-min Rain = 0
KTIS 170140Z 16008KT 03/01 A3016 RMK A01 T00270012  RH  091%=      5-min Rain = 0.01
KTIS 170145Z 16010KT 03/01 A3016 RMK A01 T00260012  RH  092%=      5-min Rain = 0.01
KTIS 170150Z 16011KT 03/01 A3016 RMK A01 T00250012  RH  092%=      5-min Rain = 0.01
KTIS 170155Z 16010KT 02/01 A3016 RMK A01 T00230012  RH  093%=      5-min Rain = 0
KTIS 170200Z 16009KT 02/01 A3016 RMK A01 T00220012  RH  094%=      5-min Rain = 0.01
KTIS 170205Z 16009KT 02/01 A3015 RMK A01 T00220013  RH  095%=      5-min Rain = 0
KTIS 170210Z 16009KT 02/01 A3015 RMK A01 T00210012  RH  095%=      5-min Rain = 0.01
KTIS 170215Z 17008KT 02/01 A3015 RMK A01 T00200013  RH  096%=      5-min Rain = 0
KTIS 170220Z 17008KT 02/01 A3015 RMK A01 T00200013  RH  096%=      5-min Rain = 0.01
KTIS 170225Z 17009KT 02/01 A3015 RMK A01 T00200013  RH  097%=      5-min Rain = 0
KTIS 170230Z 17008KT 02/01 A3016 RMK A01 T00200014  RH  097%=      5-min Rain = 0
KTIS 170235Z 18007KT 02/01 A3016 RMK A01 T00200014  RH  097%=      5-min Rain = 0
KTIS 170240Z 17007KT 02/02 A3015 RMK A01 T00200015  RH  098%=      5-min Rain = 0.01
KTIS 170245Z 17008KT 02/02 A3015 RMK A01 T00200016  RH  098%=      5-min Rain = 0.01
KTIS 170250Z 17008KT 02/02 A3014 RMK A01 T00200016  RH  099%=      5-min Rain = 0.01
KTIS 170255Z 17008KT 02/02 A3014 RMK A01 T00200017  RH  099%=      5-min Rain = 0
KTIS 170300Z 17007KT 02/02 A3013 RMK A01 T00210018  RH  099%=      5-min Rain = 0
KTIS 170305Z 16007KT 02/02 A3012 RMK A01 T00210018  RH  099%=      5-min Rain = 0
KTIS 170310Z 16008KT 02/02 A3012 RMK A01 T00210019  RH  100%=      5-min Rain = 0.01
KTIS 170315Z 16007KT 02/02 A3012 RMK A01 T00210019  RH  100%=      5-min Rain = 0
KTIS 170320Z 16007KT 02/02 A3011 RMK A01 T00210020  RH  100%=      5-min Rain = 0
KTIS 170325Z 16008KT 02/02 A301 RMK A01 T00210019  RH  100%=      5-min Rain = 0
KTIS 170330Z 16007KT 02/02 A301 RMK A01 T00210020  RH  100%=      5-min Rain = 0
KTIS 170335Z 17007KT 02/02 A301 RMK A01 T00220020  RH  100%=      5-min Rain = 0.01
KTIS 170340Z 17008KT 02/02 A301 RMK A01 T00220020  RH  100%=      5-min Rain = 0
KTIS 170345Z 17009KT 02/02 A3009 RMK A01 T00220020  RH  100%=      5-min Rain = 0
KTIS 170350Z 16009KT 02/02 A3008 RMK A01 T00220021  RH  100%=      5-min Rain = 0
KTIS 170355Z 16010KT 02/02 A3008 RMK A01 T00220021  RH  100%=      5-min Rain = 0
KTIS 170400Z 17008KT 02/02 A3008 RMK A01 T00220021  RH  100%=      5-min Rain = 0
KTIS 170405Z 17008KT 02/02 A3008 RMK A01 T00230021  RH  100%=      5-min Rain = 0.01
KTIS 170410Z 18010KT 02/02 A3008 RMK A01 T00230021  RH  100%=      5-min Rain = 0
KTIS 170415Z 18010KT 02/02 A3007 RMK A01 T00220021  RH  100%=      5-min Rain = 0
KTIS 170420Z 18012KT 02/02 A3008 RMK A01 T00230021  RH  100%=      5-min Rain = 0
KTIS 170425Z 18013KT 02/02 A3008 RMK A01 T00230021  RH  100%=      5-min Rain = 0.01
KTIS 170430Z 18014KT 02/02 A3008 RMK A01 T00230022  RH  100%=      5-min Rain = 0
KTIS 170435Z 18014G20KT 02/02 A3008 RMK A01 T00230022  RH  100%=      5-min Rain = 0.01
KTIS 170440Z 19016KT 02/02 A3008 RMK A01 T00230021  RH  100%=      5-min Rain = 0
KTIS 170445Z 19016KT 02/02 A3008 RMK A01 T00230021  RH  100%=      5-min Rain = 0
KTIS 170450Z 19016G21KT 02/02 A3008 RMK A01 T00240022  RH  100%=      5-min Rain = 0.01
KTIS 170455Z 19019G24KT 03/02 A3008 RMK A01 T00250023  RH  100%=      5-min Rain = 0
KTIS 170500Z 19021G26KT 03/02 A3008 RMK A01 T00250023  RH  100%=      5-min Rain = 0.01
KTIS 170505Z 19019KT 03/02 A3007 RMK A01 T00250023  RH  100%=      5-min Rain = 0.01
KTIS 170510Z 20017KT 02/02 A3007 RMK A01 T00240022  RH  100%=      5-min Rain = 0.01
KTIS 170515Z 25014G20KT 02/02 A3009 RMK A01 T00240022  RH  100%=      5-min Rain = 0.01
KTIS 170520Z 22014KT 03/02 A3008 RMK A01 T00250022  RH  100%=      5-min Rain = 0.01
KTIS 170525Z 22014KT 02/02 A3009 RMK A01 T00240021  RH  099%=      5-min Rain = 0.01
KTIS 170530Z 23014KT 02/02 A3009 RMK A01 T00230021  RH  099%=      5-min Rain = 0
KTIS 170535Z 24014KT 02/02 A301 RMK A01 T00230020  RH  099%=      5-min Rain = 0.02
KTIS 170540Z 23013KT 02/02 A301 RMK A01 T00240020  RH  099%=      5-min Rain = 0
KTIS 170545Z 23014KT 02/02 A301 RMK A01 T00240020  RH  099%=      5-min Rain = 0.01
KTIS 170550Z 22014KT 02/02 A301 RMK A01 T00240020  RH  099%=      5-min Rain = 0
KTIS 170555Z 22013G18KT 02/02 A301 RMK A01 T00240021  RH  099%=      5-min Rain = 0.01

Page generated in 0.0228 seconds.